Time;durP1;ratioP1;P1;durP2;ratioP2;P2;SDS_P1;SDS_P2;PMS_P1;PMS_P2;Temp;Humidity;BMP_temperature;BMP_pressure;BME280_temperature;BME280_humidity;BME280_pressure;Samples;Min_cycle;Max_cycle;Signal;HPM_P1;HPM_P2
2023/09/13 00:00:10;;;;;;;6.30;5.67;;;21.10;99.90;;;;;;4951816;28;20949;-74
2023/09/13 00:02:40;;;;;;;6.00;5.40;;;21.10;99.90;;;;;;4939120;28;20214;-73
2023/09/13 00:05:06;;;;;;;5.73;5.23;;;21.10;99.90;;;;;;4939449;28;20474;-73
2023/09/13 00:07:32;;;;;;;7.73;5.33;;;20.80;99.90;;;;;;4939220;28;20477;-73
2023/09/13 00:09:58;;;;;;;5.97;5.37;;;20.80;99.90;;;;;;4939391;28;21003;-73
2023/09/13 00:12:23;;;;;;;7.40;5.60;;;20.70;99.90;;;;;;4942127;28;20297;-72
2023/09/13 00:14:49;;;;;;;6.70;5.67;;;20.90;99.90;;;;;;4941120;28;20218;-74
2023/09/13 00:17:18;;;;;;;7.03;5.60;;;20.90;99.90;;;;;;4938816;28;20258;-74
2023/09/13 00:19:43;;;;;;;8.37;5.37;;;21.00;99.90;;;;;;4959296;28;20225;-73
2023/09/13 00:22:09;;;;;;;6.30;4.80;;;21.00;99.90;;;;;;4938221;28;20490;-73
2023/09/13 00:24:34;;;;;;;5.10;4.53;;;21.00;99.90;;;;;;4937912;28;20222;-73
2023/09/13 00:27:00;;;;;;;5.43;4.93;;;20.90;99.90;;;;;;4937776;28;20354;-72
2023/09/13 00:29:26;;;;;;;9.10;5.40;;;20.80;99.90;;;;;;4937674;28;20350;-72
2023/09/13 00:31:51;;;;;;;6.23;5.63;;;20.70;99.90;;;;;;4918177;28;20937;-72
2023/09/13 00:34:17;;;;;;;5.57;5.10;;;20.60;99.90;;;;;;4956973;28;20238;-73
2023/09/13 00:36:43;;;;;;;4.73;4.33;;;20.40;99.90;;;;;;4957917;28;20927;-72
2023/09/13 00:39:08;;;;;;;4.83;4.40;;;20.30;99.90;;;;;;4953708;28;20230;-72
2023/09/13 00:41:34;;;;;;;5.23;4.73;;;20.40;99.90;;;;;;4941075;28;20270;-72
2023/09/13 00:44:00;;;;;;;4.47;4.07;;;20.50;99.90;;;;;;4937724;28;20266;-73
2023/09/13 00:46:27;;;;;;;5.37;4.67;;;20.30;99.90;;;;;;4956771;28;20377;-73
2023/09/13 00:48:53;;;;;;;5.53;5.03;;;20.30;99.90;;;;;;4937827;28;20477;-72
2023/09/13 00:51:20;;;;;;;5.87;4.90;;;20.30;99.90;;;;;;4942426;28;20601;-72
2023/09/13 00:53:47;;;;;;;4.80;4.40;;;20.10;99.90;;;;;;4941816;28;20328;-73
2023/09/13 00:56:15;;;;;;;3.87;3.57;;;20.10;99.90;;;;;;4954686;28;20470;-72
2023/09/13 00:58:40;;;;;;;3.43;3.13;;;20.30;99.90;;;;;;4941732;28;20494;-72
2023/09/13 01:01:06;;;;;;;4.37;3.97;;;20.40;99.90;;;;;;4933779;28;20530;-72
2023/09/13 01:03:32;;;;;;;3.70;3.40;;;20.30;99.90;;;;;;4940212;28;20218;-73
2023/09/13 01:05:59;;;;;;;5.10;4.00;;;20.30;99.90;;;;;;4945845;28;20473;-73
2023/09/13 01:08:25;;;;;;;3.93;3.63;;;20.30;99.90;;;;;;4932646;28;20258;-72
2023/09/13 01:10:51;;;;;;;4.97;4.20;;;20.30;99.90;;;;;;4942009;28;20983;-72
2023/09/13 01:13:17;;;;;;;5.87;4.20;;;20.30;99.90;;;;;;4947957;28;20462;-73
2023/09/13 01:16:00;;;;;;;6.90;4.23;;;20.20;99.90;;;;;;4946020;28;20309;-72
2023/09/13 01:18:33;;;;;;;5.13;4.00;;;20.20;99.90;;;;;;4931463;28;20282;-73
2023/09/13 01:21:32;;;;;;;5.07;4.00;;;20.10;99.90;;;;;;4960741;28;20486;-73
2023/09/13 01:24:26;;;;;;;4.37;3.97;;;20.30;99.90;;;;;;4926248;28;20609;-72
2023/09/13 01:27:30;;;;;;;5.13;4.60;;;20.40;99.90;;;;;;4948033;28;20481;-73
2023/09/13 01:29:59;;;;;;;4.27;3.87;;;20.50;99.90;;;;;;4946533;28;20931;-72
2023/09/13 01:32:25;;;;;;;4.63;4.20;;;20.60;99.90;;;;;;4954561;28;20480;-72
2023/09/13 01:34:50;;;;;;;5.23;4.43;;;20.70;99.90;;;;;;4932664;28;20470;-72
2023/09/13 01:37:16;;;;;;;6.40;4.40;;;20.50;99.90;;;;;;4945271;28;20296;-72
2023/09/13 01:39:42;;;;;;;4.37;3.60;;;20.30;99.90;;;;;;4949041;28;20218;-73
2023/09/13 01:42:11;;;;;;;5.53;4.07;;;20.20;99.90;;;;;;4946111;28;20653;-72
2023/09/13 01:44:41;;;;;;;4.57;4.13;;;20.20;99.90;;;;;;4947443;28;20219;-73
2023/09/13 01:47:08;;;;;;;5.60;4.57;;;20.20;99.90;;;;;;4952272;28;20648;-74
2023/09/13 01:49:38;;;;;;;4.00;3.60;;;20.30;99.90;;;;;;4951289;28;20594;-73
2023/09/13 01:52:05;;;;;;;4.23;3.83;;;20.40;99.90;;;;;;4957384;28;20482;-72
2023/09/13 01:54:35;;;;;;;5.27;3.87;;;20.50;99.90;;;;;;4947867;28;20480;-73
2023/09/13 01:57:01;;;;;;;5.50;3.60;;;20.30;99.90;;;;;;4949372;28;20485;-73
2023/09/13 01:59:27;;;;;;;3.53;3.23;;;20.00;99.90;;;;;;4961716;28;20485;-72
2023/09/13 02:01:53;;;;;;;4.70;3.63;;;20.10;99.90;;;;;;4929083;28;20484;-72
2023/09/13 02:04:19;;;;;;;3.80;3.50;;;19.90;99.90;;;;;;4949273;28;20249;-73
2023/09/13 02:06:45;;;;;;;3.83;3.40;;;19.80;99.90;;;;;;4963204;28;20486;-72
2023/09/13 02:09:11;;;;;;;3.70;3.40;;;20.00;99.90;;;;;;4935932;28;20230;-73
2023/09/13 02:11:37;;;;;;;7.27;4.50;;;19.80;99.90;;;;;;4965640;28;20258;-72
2023/09/13 02:14:03;;;;;;;3.53;3.23;;;19.50;99.90;;;;;;4956377;28;20458;-71
2023/09/13 02:16:29;;;;;;;4.13;3.70;;;19.50;99.90;;;;;;4936566;28;20226;-72
2023/09/13 02:18:55;;;;;;;6.47;4.10;;;19.60;99.90;;;;;;4964859;28;20222;-72
2023/09/13 02:21:21;;;;;;;5.57;3.70;;;19.60;99.90;;;;;;4964335;28;20485;-72
2023/09/13 02:23:46;;;;;;;5.90;3.40;;;19.70;99.90;;;;;;4956092;28;20830;-73
2023/09/13 02:26:20;;;;;;;4.23;3.83;;;19.80;99.90;;;;;;4948823;28;20251;-72
2023/09/13 02:28:46;;;;;;;4.67;3.70;;;19.80;99.90;;;;;;4948904;28;20223;-72
2023/09/13 02:31:12;;;;;;;4.30;3.90;;;19.90;99.90;;;;;;4962876;28;21128;-73
2023/09/13 02:33:38;;;;;;;4.90;3.90;;;20.00;99.90;;;;;;4950286;28;20227;-72
2023/09/13 02:36:04;;;;;;;4.43;4.03;;;19.90;99.90;;;;;;4945327;28;20231;-71
2023/09/13 02:38:29;;;;;;;4.70;3.80;;;19.70;99.90;;;;;;4952605;28;20485;-73
2023/09/13 02:40:55;;;;;;;3.97;3.57;;;19.60;99.90;;;;;;4949329;28;20741;-73
2023/09/13 02:43:21;;;;;;;4.17;3.43;;;19.70;99.90;;;;;;4963934;28;20223;-72
2023/09/13 02:45:47;;;;;;;4.43;4.03;;;19.90;99.90;;;;;;4948479;28;20265;-72
2023/09/13 02:48:12;;;;;;;4.50;4.10;;;19.70;99.90;;;;;;4949119;28;20469;-72
2023/09/13 02:50:41;;;;;;;3.97;3.50;;;19.70;99.90;;;;;;4948815;28;20214;-73
2023/09/13 02:53:07;;;;;;;4.17;3.77;;;20.00;99.90;;;;;;4946549;28;21209;-73
2023/09/13 02:55:33;;;;;;;5.13;4.13;;;20.10;99.90;;;;;;4963817;28;20469;-72
2023/09/13 02:57:58;;;;;;;3.73;3.43;;;20.30;99.90;;;;;;4962358;28;20263;-73
2023/09/13 03:00:24;;;;;;;3.83;3.13;;;20.30;99.90;;;;;;4947534;28;20727;-73
2023/09/13 03:02:50;;;;;;;4.50;3.80;;;20.40;99.90;;;;;;4949493;28;20238;-73
2023/09/13 03:05:16;;;;;;;3.50;3.20;;;20.30;99.90;;;;;;4948614;28;20818;-73
2023/09/13 03:07:41;;;;;;;3.70;3.33;;;20.30;99.90;;;;;;4945188;28;20219;-73
2023/09/13 03:10:08;;;;;;;3.10;2.80;;;20.40;99.90;;;;;;4947768;28;20230;-73
2023/09/13 03:12:33;;;;;;;3.63;3.33;;;20.50;99.90;;;;;;4951614;28;20620;-72
2023/09/13 03:15:00;;;;;;;3.87;3.47;;;20.50;99.90;;;;;;4945259;28;20477;-73
2023/09/13 03:17:26;;;;;;;4.40;3.80;;;20.40;99.90;;;;;;4962466;28;20500;-72
2023/09/13 03:19:52;;;;;;;4.03;3.63;;;20.40;99.90;;;;;;4937713;28;20261;-73
2023/09/13 03:22:19;;;;;;;4.50;3.50;;;20.10;99.90;;;;;;4944080;28;20462;-73
2023/09/13 03:24:45;;;;;;;6.90;3.33;;;19.80;99.90;;;;;;4945005;28;20981;-72
2023/09/13 03:27:11;;;;;;;3.87;3.50;;;19.60;99.90;;;;;;4951577;28;20486;-73
2023/09/13 03:29:36;;;;;;;3.90;3.50;;;19.40;99.90;;;;;;4950031;28;20948;-73
2023/09/13 03:32:03;;;;;;;4.60;3.87;;;19.50;99.90;;;;;;4960748;28;20227;-72
2023/09/13 03:34:28;;;;;;;4.10;3.40;;;19.70;99.90;;;;;;4947346;28;20318;-73
2023/09/13 03:36:54;;;;;;;4.70;3.60;;;19.70;99.90;;;;;;4948984;28;20465;-74
2023/09/13 03:39:20;;;;;;;5.70;3.70;;;19.70;99.90;;;;;;4947283;28;20223;-73
2023/09/13 03:41:46;;;;;;;7.07;3.57;;;19.60;99.90;;;;;;4947212;28;20245;-72
2023/09/13 03:44:12;;;;;;;5.87;3.67;;;19.50;99.90;;;;;;4932894;28;20305;-73
2023/09/13 03:46:38;;;;;;;3.60;3.30;;;19.30;99.90;;;;;;4931742;28;20229;-74
2023/09/13 03:49:03;;;;;;;4.50;4.10;;;19.20;99.90;;;;;;4943741;28;20353;-73
2023/09/13 03:51:29;;;;;;;3.77;3.47;;;19.10;99.90;;;;;;4946859;28;20234;-73
2023/09/13 03:53:58;;;;;;;3.90;3.57;;;19.10;99.90;;;;;;4963419;28;20346;-72
2023/09/13 03:56:23;;;;;;;4.63;4.23;;;19.00;99.90;;;;;;4949359;28;20596;-72
2023/09/13 03:58:49;;;;;;;3.40;3.10;;;19.00;99.90;;;;;;4948178;28;21174;-73
2023/09/13 04:01:16;;;;;;;7.03;3.60;;;18.90;99.90;;;;;;4925230;28;20238;-73
2023/09/13 04:03:41;;;;;;;4.07;3.67;;;19.00;99.90;;;;;;4947730;28;21123;-73
2023/09/13 04:06:07;;;;;;;6.63;4.30;;;19.20;99.90;;;;;;4953744;28;20222;-72
2023/09/13 04:08:33;;;;;;;6.83;3.73;;;19.20;99.90;;;;;;4948469;28;20740;-71
2023/09/13 04:10:58;;;;;;;8.07;3.73;;;19.20;99.90;;;;;;4960288;28;20218;-73
2023/09/13 04:13:24;;;;;;;4.30;3.20;;;19.50;99.90;;;;;;4963040;28;20221;-73
2023/09/13 04:15:51;;;;;;;3.77;2.97;;;19.60;99.90;;;;;;4946023;28;20227;-74
2023/09/13 04:18:17;;;;;;;3.47;3.10;;;19.70;99.90;;;;;;4942371;28;20466;-73
2023/09/13 04:20:44;;;;;;;5.00;4.00;;;19.70;99.90;;;;;;4947386;28;20349;-73
2023/09/13 04:23:09;;;;;;;4.00;3.60;;;19.70;99.90;;;;;;4946825;28;20215;-72
2023/09/13 04:25:36;;;;;;;3.37;3.10;;;19.70;99.90;;;;;;4960981;28;20930;-73
2023/09/13 04:28:04;;;;;;;3.60;2.97;;;19.80;99.90;;;;;;4947540;28;20475;-73
2023/09/13 04:30:31;;;;;;;3.90;3.50;;;19.80;99.90;;;;;;4944008;28;21177;-73
2023/09/13 04:33:00;;;;;;;4.10;3.80;;;19.90;99.90;;;;;;4949043;28;20600;-73
2023/09/13 04:35:26;;;;;;;3.30;3.00;;;19.90;99.90;;;;;;4948075;28;20496;-73
2023/09/13 04:37:53;;;;;;;3.60;3.10;;;19.90;99.90;;;;;;4946578;28;20500;-72
2023/09/13 04:40:19;;;;;;;3.80;3.50;;;20.00;99.90;;;;;;4948244;28;20223;-73
2023/09/13 04:43:14;;;;;;;3.53;3.23;;;20.00;99.90;;;;;;4948216;28;20548;-72
2023/09/13 04:45:40;;;;;;;5.33;3.40;;;20.00;99.90;;;;;;4947275;28;20277;-73
2023/09/13 04:48:06;;;;;;;3.77;3.47;;;20.10;99.90;;;;;;4948007;28;21129;-71
2023/09/13 04:50:31;;;;;;;3.17;2.87;;;20.10;99.90;;;;;;4930240;28;20226;-72
2023/09/13 04:52:57;;;;;;;3.53;3.17;;;20.10;99.90;;;;;;4948126;28;20226;-72
2023/09/13 04:55:24;;;;;;;4.17;3.77;;;20.10;99.90;;;;;;4962142;28;20226;-73
2023/09/13 04:57:50;;;;;;;4.63;4.10;;;20.00;99.90;;;;;;4947345;28;20512;-72
2023/09/13 05:00:16;;;;;;;5.20;4.20;;;20.10;99.90;;;;;;4946051;28;20912;-72
2023/09/13 05:02:42;;;;;;;3.80;3.50;;;20.00;99.90;;;;;;4952941;28;20265;-73
2023/09/13 05:05:08;;;;;;;3.77;3.37;;;20.00;99.90;;;;;;4944235;28;20478;-73
2023/09/13 05:07:34;;;;;;;4.00;3.60;;;20.00;99.90;;;;;;4945643;28;20588;-73
2023/09/13 05:10:00;;;;;;;3.57;3.27;;;20.00;99.90;;;;;;4944976;28;20223;-73
2023/09/13 05:12:25;;;;;;;4.63;4.17;;;19.90;99.90;;;;;;4961439;28;20219;-73
2023/09/13 05:14:51;;;;;;;3.40;3.10;;;19.80;99.90;;;;;;4960717;28;20745;-72
2023/09/13 05:17:17;;;;;;;4.53;3.83;;;19.80;99.90;;;;;;4960427;28;20237;-74
2023/09/13 05:19:42;;;;;;;6.83;3.47;;;19.90;99.90;;;;;;4943463;28;20290;-73
2023/09/13 05:22:08;;;;;;;3.47;3.17;;;19.80;99.90;;;;;;4944391;28;20516;-72
2023/09/13 05:24:34;;;;;;;4.97;4.50;;;19.70;99.90;;;;;;4948275;28;20227;-74
2023/09/13 05:26:59;;;;;;;4.93;4.33;;;19.70;99.90;;;;;;4945405;28;20230;-72
2023/09/13 05:29:25;;;;;;;6.17;4.40;;;19.70;99.90;;;;;;4946365;28;20317;-72
2023/09/13 05:31:51;;;;;;;4.57;3.90;;;19.70;99.90;;;;;;4949930;28;20230;-73
2023/09/13 05:34:16;;;;;;;6.13;4.27;;;19.70;99.90;;;;;;4966360;28;20877;-73
2023/09/13 05:36:42;;;;;;;4.40;4.00;;;19.70;99.90;;;;;;4941446;28;20230;-72
2023/09/13 05:39:09;;;;;;;4.80;3.77;;;19.60;99.90;;;;;;4938669;28;20481;-73
2023/09/13 05:41:35;;;;;;;4.13;3.80;;;19.70;99.90;;;;;;4922603;28;20401;-73
2023/09/13 05:44:01;;;;;;;4.17;3.77;;;19.80;99.90;;;;;;4923381;28;20485;-72
2023/09/13 05:46:26;;;;;;;4.13;3.73;;;19.80;99.90;;;;;;4923726;28;20253;-75
2023/09/13 05:48:52;;;;;;;4.77;4.30;;;19.80;99.90;;;;;;4938269;28;20231;-73
2023/09/13 05:51:19;;;;;;;8.00;4.63;;;19.80;99.90;;;;;;4938410;28;20230;-72
2023/09/13 05:53:45;;;;;;;8.37;4.20;;;19.70;99.90;;;;;;4919922;28;20745;-73
2023/09/13 05:56:11;;;;;;;6.57;4.23;;;19.70;99.90;;;;;;4925569;28;20480;-72
2023/09/13 05:58:38;;;;;;;7.50;4.10;;;19.60;99.90;;;;;;4906326;28;20917;-72
2023/09/13 06:01:05;;;;;;;7.60;4.30;;;19.70;99.90;;;;;;4923410;28;20478;-73
2023/09/13 06:03:32;;;;;;;8.50;4.80;;;19.60;99.90;;;;;;4938522;28;20465;-73
2023/09/13 06:05:57;;;;;;;6.70;5.07;;;19.50;99.90;;;;;;4897662;28;20515;-73
2023/09/13 06:08:23;;;;;;;7.50;4.33;;;19.60;99.90;;;;;;4938128;28;20544;-73
2023/09/13 06:10:49;;;;;;;5.30;4.63;;;19.60;99.90;;;;;;4924859;28;20218;-73
2023/09/13 06:13:17;;;;;;;6.07;4.90;;;19.70;99.90;;;;;;4938085;28;20226;-73
2023/09/13 06:15:43;;;;;;;5.67;5.10;;;19.60;99.90;;;;;;4897442;28;20226;-71
2023/09/13 06:18:09;;;;;;;7.10;5.07;;;19.60;99.90;;;;;;4914815;28;20470;-73
2023/09/13 06:20:34;;;;;;;4.93;4.43;;;19.60;99.90;;;;;;4922377;28;20234;-72
2023/09/13 06:23:00;;;;;;;4.90;4.40;;;19.70;99.90;;;;;;4937987;28;20229;-73
2023/09/13 06:25:26;;;;;;;6.07;5.10;;;19.80;99.90;;;;;;4932761;28;20219;-72
2023/09/13 06:27:51;;;;;;;6.47;5.80;;;19.70;99.90;;;;;;4938082;28;20862;-72
2023/09/13 06:30:17;;;;;;;6.00;5.40;;;19.60;99.90;;;;;;4924836;28;20951;-72
2023/09/13 06:32:43;;;;;;;7.00;5.43;;;19.70;99.90;;;;;;4922018;28;20219;-73
2023/09/13 06:35:12;;;;;;;6.47;5.80;;;19.80;99.90;;;;;;4937592;28;20223;-72
2023/09/13 06:37:39;;;;;;;6.10;5.60;;;19.70;99.90;;;;;;4922971;28;20241;-73
2023/09/13 06:40:06;;;;;;;8.40;5.83;;;19.80;99.90;;;;;;4922015;28;21131;-72
2023/09/13 06:42:31;;;;;;;7.30;5.40;;;19.90;99.90;;;;;;4922286;28;21082;-74
2023/09/13 06:44:59;;;;;;;7.00;6.27;;;20.00;99.90;;;;;;4922317;28;20502;-73
2023/09/13 06:47:25;;;;;;;5.53;5.03;;;20.00;99.90;;;;;;4907827;28;20248;-73
2023/09/13 06:49:51;;;;;;;5.73;5.23;;;20.00;99.90;;;;;;4921020;28;20486;-73
2023/09/13 06:52:16;;;;;;;7.67;5.93;;;20.10;99.90;;;;;;4934536;28;20537;-72
2023/09/13 06:54:42;;;;;;;5.70;5.10;;;20.20;99.90;;;;;;4927594;28;20361;-73
2023/09/13 06:57:08;;;;;;;6.57;5.03;;;20.20;99.90;;;;;;4921534;28;20972;-73
2023/09/13 06:59:34;;;;;;;5.93;5.43;;;20.20;99.90;;;;;;4920873;28;20242;-72
2023/09/13 07:02:00;;;;;;;7.60;5.67;;;20.20;99.90;;;;;;4921360;28;20565;-72
2023/09/13 07:04:26;;;;;;;6.37;5.27;;;20.30;99.90;;;;;;4904738;28;21232;-73
2023/09/13 07:06:52;;;;;;;9.40;5.70;;;20.30;99.90;;;;;;4922079;28;20596;-73
2023/09/13 07:09:18;;;;;;;6.53;5.13;;;20.30;99.90;;;;;;4921351;28;20226;-73
2023/09/13 07:11:43;;;;;;;6.90;4.90;;;20.30;99.90;;;;;;4921920;28;20222;-72
2023/09/13 07:14:09;;;;;;;8.37;5.63;;;20.30;99.90;;;;;;4920001;28;20233;-73
2023/09/13 07:16:34;;;;;;;10.63;8.87;;;20.40;99.90;;;;;;4919517;28;20244;-73
2023/09/13 07:19:03;;;;;;;5.07;4.57;;;20.40;99.90;;;;;;4920692;28;20265;-72
2023/09/13 07:21:29;;;;;;;8.80;5.40;;;20.50;99.90;;;;;;4938652;28;20230;-72
2023/09/13 07:23:55;;;;;;;6.33;5.60;;;20.50;99.90;;;;;;4921893;28;20617;-72
2023/09/13 07:26:20;;;;;;;6.50;5.73;;;20.50;99.90;;;;;;4921508;28;20478;-72
2023/09/13 07:28:46;;;;;;;7.90;6.17;;;20.50;99.90;;;;;;4924082;28;20218;-73
2023/09/13 07:31:12;;;;;;;7.37;6.13;;;20.60;99.90;;;;;;4920968;28;20325;-73
2023/09/13 07:33:37;;;;;;;6.23;5.63;;;20.50;99.90;;;;;;4935772;28;20230;-73
2023/09/13 07:36:03;;;;;;;6.80;5.80;;;20.60;99.90;;;;;;4922705;28;20281;-73
2023/09/13 07:38:29;;;;;;;5.93;4.93;;;20.60;99.90;;;;;;4921556;28;20260;-72
2023/09/13 07:40:55;;;;;;;6.00;5.40;;;20.60;99.90;;;;;;4920447;28;20368;-73
2023/09/13 07:43:20;;;;;;;7.63;6.37;;;20.60;99.90;;;;;;4930106;28;20414;-72
2023/09/13 07:45:46;;;;;;;8.77;5.47;;;20.60;99.90;;;;;;4920916;28;20276;-72
2023/09/13 07:48:12;;;;;;;5.80;4.77;;;20.70;99.90;;;;;;4913178;28;20230;-73
2023/09/13 07:50:42;;;;;;;8.20;6.07;;;20.70;99.90;;;;;;4919655;28;20230;-73
2023/09/13 07:53:08;;;;;;;7.97;5.97;;;20.70;99.90;;;;;;4929011;28;20230;-71
2023/09/13 07:55:34;;;;;;;6.37;5.73;;;20.60;99.90;;;;;;4935854;28;20487;-74
2023/09/13 07:58:00;;;;;;;6.70;5.27;;;20.70;99.90;;;;;;4920408;28;20470;-72
2023/09/13 08:00:26;;;;;;;7.03;6.37;;;20.70;99.90;;;;;;4914828;28;20218;-73
2023/09/13 08:02:52;;;;;;;7.73;5.97;;;20.70;99.90;;;;;;4920992;28;21286;-74
2023/09/13 08:05:18;;;;;;;6.77;6.07;;;20.70;99.90;;;;;;4934365;28;20229;-73
2023/09/13 08:07:47;;;;;;;6.13;5.53;;;20.70;99.90;;;;;;4935453;28;20237;-73
2023/09/13 08:10:13;;;;;;;9.13;6.67;;;20.70;99.90;;;;;;4920430;28;20229;-74
2023/09/13 08:12:39;;;;;;;6.50;5.57;;;20.70;99.90;;;;;;4918932;28;20543;-72
2023/09/13 08:15:05;;;;;;;8.13;6.00;;;20.70;99.90;;;;;;4912613;28;20480;-73
2023/09/13 08:17:33;;;;;;;9.43;6.00;;;20.70;99.90;;;;;;4936350;28;20995;-73
2023/09/13 08:19:59;;;;;;;5.87;5.27;;;20.80;99.90;;;;;;4932201;28;20751;-73
2023/09/13 08:22:24;;;;;;;6.70;5.13;;;20.90;99.90;;;;;;4911984;28;20481;-71
2023/09/13 08:24:50;;;;;;;5.30;4.60;;;20.90;99.90;;;;;;4929126;28;21240;-73
2023/09/13 08:27:16;;;;;;;5.53;4.93;;;21.00;99.90;;;;;;4935885;28;20260;-73
2023/09/13 08:29:41;;;;;;;6.37;5.67;;;21.00;99.90;;;;;;4906105;28;20226;-74
2023/09/13 08:32:07;;;;;;;7.00;5.70;;;21.10;99.90;;;;;;4918363;28;20229;-73
2023/09/13 08:34:33;;;;;;;5.63;5.10;;;21.20;99.90;;;;;;4937308;28;20226;-73
2023/09/13 08:36:59;;;;;;;7.70;5.03;;;21.30;99.90;;;;;;4920131;28;20711;-73
2023/09/13 08:39:25;;;;;;;6.10;5.27;;;21.30;99.90;;;;;;4930112;28;20612;-73
2023/09/13 08:41:55;;;;;;;7.97;6.97;;;21.40;99.90;;;;;;4920614;28;20364;-73
2023/09/13 08:44:22;;;;;;;7.83;6.10;;;21.50;99.90;;;;;;4920528;28;20237;-74
2023/09/13 08:46:56;;;;;;;6.40;5.20;;;21.60;99.90;;;;;;4912463;28;20488;-73
2023/09/13 08:49:25;;;;;;;5.90;5.30;;;21.60;99.90;;;;;;4920886;28;21204;-72
2023/09/13 08:51:52;;;;;;;9.17;5.83;;;21.70;99.90;;;;;;4921368;28;20555;-72
2023/09/13 08:54:19;;;;;;;5.80;5.13;;;21.70;99.90;;;;;;4919834;28;20621;-73
2023/09/13 08:56:48;;;;;;;7.33;5.00;;;21.80;99.90;;;;;;4928483;28;20533;-72
2023/09/13 08:59:15;;;;;;;6.73;4.60;;;21.80;99.90;;;;;;4920271;28;20596;-73
2023/09/13 09:01:46;;;;;;;6.60;5.77;;;21.90;99.90;;;;;;4927747;28;21104;-74
2023/09/13 09:04:14;;;;;;;5.20;4.70;;;22.00;99.90;;;;;;4919407;28;20523;-73
2023/09/13 09:06:40;;;;;;;5.73;5.00;;;22.00;99.90;;;;;;4917233;28;20556;-73
2023/09/13 09:09:07;;;;;;;5.03;4.40;;;22.10;99.90;;;;;;4920843;28;20476;-73
2023/09/13 09:11:35;;;;;;;5.60;4.93;;;22.00;99.90;;;;;;4914315;28;20558;-72
2023/09/13 09:14:02;;;;;;;5.50;5.00;;;22.10;99.90;;;;;;4918552;28;20481;-74
2023/09/13 09:16:29;;;;;;;6.27;5.20;;;22.10;99.90;;;;;;4934713;28;20499;-73
2023/09/13 09:19:00;;;;;;;5.40;4.80;;;22.10;99.90;;;;;;4937445;28;20487;-76
2023/09/13 09:21:25;;;;;;;5.17;4.70;;;22.10;99.90;;;;;;4957320;28;20583;-74
2023/09/13 09:23:52;;;;;;;5.63;4.77;;;22.20;99.90;;;;;;4947304;28;20932;-74
2023/09/13 09:26:18;;;;;;;4.33;3.80;;;22.20;99.90;;;;;;4926337;28;20636;-72
2023/09/13 09:28:43;;;;;;;7.70;4.03;;;22.40;99.90;;;;;;4921245;28;20496;-73
2023/09/13 09:31:10;;;;;;;5.00;4.33;;;22.40;99.90;;;;;;4935442;28;20280;-72
2023/09/13 09:33:38;;;;;;;4.40;3.93;;;22.50;99.90;;;;;;4934928;28;20218;-72
2023/09/13 09:36:04;;;;;;;4.30;3.90;;;22.60;99.90;;;;;;4920920;28;20501;-74
2023/09/13 09:38:30;;;;;;;7.27;4.93;;;22.80;99.90;;;;;;4918852;28;20532;-73
2023/09/13 09:40:59;;;;;;;4.27;3.87;;;22.90;99.90;;;;;;4918129;28;20293;-74
2023/09/13 09:43:25;;;;;;;4.70;4.30;;;23.00;99.90;;;;;;4936104;28;20535;-74
2023/09/13 09:45:51;;;;;;;4.40;3.93;;;23.10;99.90;;;;;;4934658;28;20607;-73
2023/09/13 09:48:17;;;;;;;3.73;3.43;;;23.00;99.90;;;;;;4919438;28;20501;-74
2023/09/13 09:50:48;;;;;;;4.50;3.80;;;22.90;99.90;;;;;;4917894;28;20332;-73
2023/09/13 09:53:14;;;;;;;5.30;4.13;;;22.80;99.90;;;;;;4919559;28;20470;-74
2023/09/13 09:55:45;;;;;;;4.23;3.83;;;22.80;99.90;;;;;;4917071;28;20509;-74
2023/09/13 09:58:11;;;;;;;4.57;4.07;;;22.80;99.90;;;;;;4932281;28;20530;-74
2023/09/13 10:00:51;;;;;;;4.23;3.90;;;22.90;99.90;;;;;;4918644;28;20470;-74
2023/09/13 10:03:17;;;;;;;6.50;3.90;;;22.90;99.90;;;;;;4905306;28;20480;-73
2023/09/13 10:05:55;;;;;;;4.43;4.03;;;22.80;99.90;;;;;;4899119;28;20598;-74
2023/09/13 10:08:35;;;;;;;3.80;3.47;;;22.90;99.90;;;;;;4893095;28;20838;-74
2023/09/13 10:11:01;;;;;;;10.73;3.53;;;22.90;99.90;;;;;;4902557;28;20493;-73
2023/09/13 10:13:30;;;;;;;3.77;3.47;;;22.90;99.90;;;;;;4888074;28;21022;-74
2023/09/13 10:15:56;;;;;;;4.23;3.83;;;22.90;99.90;;;;;;4917454;28;20470;-74
2023/09/13 10:18:25;;;;;;;4.10;3.70;;;22.90;99.90;;;;;;4905233;28;20477;-74
2023/09/13 10:20:56;;;;;;;4.83;3.27;;;22.90;99.90;;;;;;4934305;28;20469;-74
2023/09/13 10:23:28;;;;;;;3.63;3.33;;;22.80;99.90;;;;;;4905882;28;20473;-73
2023/09/13 10:25:57;;;;;;;4.17;3.77;;;22.70;99.90;;;;;;4906738;28;20477;-73
2023/09/13 10:28:26;;;;;;;5.10;4.30;;;22.70;99.90;;;;;;4908785;28;20600;-73
2023/09/13 10:30:55;;;;;;;5.37;4.13;;;22.70;99.90;;;;;;4907048;28;21094;-74
2023/09/13 10:33:21;;;;;;;3.97;3.60;;;22.70;99.90;;;;;;4910554;28;21271;-73
2023/09/13 10:35:50;;;;;;;3.60;3.30;;;22.70;99.90;;;;;;4905337;28;20482;-75
2023/09/13 10:38:26;;;;;;;3.80;3.50;;;22.70;99.90;;;;;;4913375;28;20266;-74
2023/09/13 10:41:03;;;;;;;4.00;3.60;;;22.70;99.90;;;;;;4934920;28;20663;-73
2023/09/13 10:43:30;;;;;;;3.43;3.13;;;22.60;99.90;;;;;;4919545;28;20706;-74
2023/09/13 10:45:57;;;;;;;3.90;3.60;;;22.60;99.90;;;;;;4936391;28;20578;-75
2023/09/13 10:48:23;;;;;;;4.10;3.70;;;22.60;99.90;;;;;;4921804;28;20469;-74
2023/09/13 10:50:50;;;;;;;3.73;3.23;;;22.60;99.90;;;;;;4915764;28;20493;-73
2023/09/13 10:53:16;;;;;;;7.40;3.40;;;22.60;99.90;;;;;;4921174;28;20465;-74
2023/09/13 10:55:47;;;;;;;4.80;3.47;;;22.60;99.90;;;;;;4935410;28;20612;-73
2023/09/13 10:58:20;;;;;;;4.07;3.73;;;22.60;99.90;;;;;;4920417;28;20472;-75
2023/09/13 11:00:47;;;;;;;4.30;3.90;;;22.60;99.90;;;;;;4934275;28;20508;-74
2023/09/13 11:03:13;;;;;;;4.40;3.57;;;22.60;99.90;;;;;;4922121;28;20572;-74
2023/09/13 11:05:39;;;;;;;3.53;3.23;;;22.60;99.90;;;;;;4936384;28;20481;-74
2023/09/13 11:08:11;;;;;;;3.60;3.30;;;22.60;99.90;;;;;;4936301;28;20234;-74
2023/09/13 11:10:37;;;;;;;3.67;3.30;;;22.60;99.90;;;;;;4921306;28;20865;-74
2023/09/13 11:13:13;;;;;;;3.90;3.23;;;22.60;99.90;;;;;;4937520;28;20548;-73
2023/09/13 11:15:49;;;;;;;4.17;3.50;;;22.60;99.90;;;;;;4922955;28;20233;-74
2023/09/13 11:18:15;;;;;;;3.30;3.00;;;22.60;99.90;;;;;;4921016;28;20567;-73
2023/09/13 11:20:42;;;;;;;3.57;3.27;;;22.60;99.90;;;;;;4920348;28;20473;-74
2023/09/13 11:23:14;;;;;;;3.33;3.07;;;22.60;99.90;;;;;;4935781;28;20577;-74
2023/09/13 11:25:50;;;;;;;3.30;3.00;;;22.60;99.90;;;;;;4920564;28;21205;-74
2023/09/13 11:28:31;;;;;;;4.13;3.80;;;22.70;99.90;;;;;;4915827;28;20612;-74
2023/09/13 11:30:59;;;;;;;4.10;3.70;;;22.60;99.90;;;;;;4919705;28;20476;-73
2023/09/13 11:33:38;;;;;;;6.40;3.47;;;22.60;99.90;;;;;;4903054;28;20612;-74
2023/09/13 11:36:04;;;;;;;3.90;3.50;;;22.70;99.90;;;;;;4920149;28;20465;-74
2023/09/13 11:38:30;;;;;;;4.10;3.70;;;22.70;99.90;;;;;;4928312;28;20473;-75
2023/09/13 11:40:57;;;;;;;3.00;2.80;;;22.70;99.90;;;;;;4917143;28;21172;-73
2023/09/13 11:43:28;;;;;;;3.90;3.60;;;22.70;99.90;;;;;;4919862;28;20547;-74
2023/09/13 11:45:58;;;;;;;3.87;3.57;;;22.70;99.90;;;;;;4934751;28;21172;-73
2023/09/13 11:48:26;;;;;;;3.40;3.10;;;22.80;99.90;;;;;;4934043;28;20466;-74
2023/09/13 11:50:53;;;;;;;3.43;3.13;;;22.70;99.90;;;;;;4913436;28;20469;-77
2023/09/13 11:53:31;;;;;;;3.17;2.87;;;22.70;99.90;;;;;;4916196;28;20596;-73
2023/09/13 11:55:56;;;;;;;3.73;3.43;;;22.70;99.90;;;;;;4928918;28;20607;-73
2023/09/13 11:58:39;;;;;;;4.73;3.53;;;22.80;99.90;;;;;;4920376;28;20485;-73
2023/09/13 12:01:06;;;;;;;4.83;3.77;;;22.80;99.90;;;;;;4918546;28;20218;-73
2023/09/13 12:03:39;;;;;;;4.60;4.07;;;22.80;99.90;;;;;;4922480;28;20591;-74
2023/09/13 12:06:05;;;;;;;4.03;3.33;;;22.80;99.90;;;;;;4902038;28;20551;-73
2023/09/13 12:08:34;;;;;;;3.83;3.53;;;22.90;99.90;;;;;;4934734;28;21236;-73
2023/09/13 12:11:04;;;;;;;4.70;4.30;;;22.90;99.90;;;;;;4921289;28;20469;-74
2023/09/13 12:13:52;;;;;;;3.67;3.37;;;22.90;99.90;;;;;;4920049;28;20918;-73
2023/09/13 12:16:19;;;;;;;4.00;3.70;;;23.00;99.90;;;;;;4900077;28;20465;-74
2023/09/13 12:18:44;;;;;;;3.60;3.30;;;23.10;99.90;;;;;;4921172;28;21200;-74
2023/09/13 12:21:12;;;;;;;4.43;4.03;;;23.10;99.90;;;;;;4920279;28;20485;-73
2023/09/13 12:23:40;;;;;;;3.70;3.40;;;23.10;99.90;;;;;;4920494;28;20308;-73
2023/09/13 12:26:11;;;;;;;4.37;3.97;;;23.20;99.90;;;;;;4933061;28;21171;-74
2023/09/13 12:28:39;;;;;;;7.90;3.70;;;23.20;99.90;;;;;;4935530;28;20987;-75
2023/09/13 12:31:12;;;;;;;3.60;3.30;;;23.20;99.90;;;;;;4919259;28;20510;-73
2023/09/13 12:33:51;;;;;;;5.10;3.60;;;23.20;99.90;;;;;;4917501;28;20497;-75
2023/09/13 12:36:17;;;;;;;3.97;3.57;;;23.20;99.90;;;;;;4918205;28;20578;-73
2023/09/13 12:38:48;;;;;;;4.00;3.67;;;23.20;99.90;;;;;;4901582;28;20478;-73
2023/09/13 12:41:19;;;;;;;4.07;3.40;;;23.20;99.90;;;;;;4933704;28;20948;-73
2023/09/13 12:43:49;;;;;;;3.90;3.60;;;23.10;99.90;;;;;;4912787;28;20492;-72
2023/09/13 12:46:20;;;;;;;4.03;3.73;;;23.20;99.90;;;;;;4918950;28;20556;-74
2023/09/13 12:48:49;;;;;;;4.40;4.00;;;23.20;99.90;;;;;;4926918;28;20520;-74